Time;durP1;ratioP1;P1;durP2;ratioP2;P2;SDS_P1;SDS_P2;PMS_P1;PMS_P2;Temp;Humidity;BMP_temperature;BMP_pressure;BME280_temperature;BME280_humidity;BME280_pressure;Samples;Min_cycle;Max_cycle;Signal;HPM_P1;HPM_P2
2022/11/04 00:01:31;;;;;;;5.93;4.33;;;12.60;90.30;;;;;;5034669;28;20455;-66
2022/11/04 00:03:58;;;;;;;4.97;2.83;;;12.50;89.30;;;;;;5034738;28;20443;-66
2022/11/04 00:06:26;;;;;;;4.38;2.72;;;12.50;87.10;;;;;;5034256;28;20446;-66
2022/11/04 00:08:56;;;;;;;4.30;1.87;;;12.40;85.90;;;;;;5034859;28;20533;-66
2022/11/04 00:14:10;;;;;;;6.15;2.70;;;12.30;84.70;;;;;;5034723;28;20450;-66
2022/11/04 00:19:22;;;;;;;2.90;1.83;;;12.20;85.00;;;;;;5034742;28;20194;-66
2022/11/04 00:30:08;;;;;;;3.17;1.60;;;11.90;87.80;;;;;;5034441;28;20636;-67
2022/11/04 00:35:20;;;;;;;2.88;1.85;;;11.80;88.20;;;;;;5034342;28;20222;-67
2022/11/04 00:37:47;;;;;;;3.65;1.20;;;11.70;88.70;;;;;;5034130;28;20264;-68
2022/11/04 00:40:17;;;;;;;2.95;1.38;;;11.70;88.70;;;;;;5034085;28;20600;-68
2022/11/04 00:42:45;;;;;;;2.90;1.50;;;11.70;89.70;;;;;;5034231;28;20628;-67
2022/11/04 00:45:12;;;;;;;3.30;1.30;;;11.60;90.00;;;;;;5033894;28;20584;-67
2022/11/04 00:47:39;;;;;;;3.33;1.02;;;11.60;90.10;;;;;;5034258;28;20195;-67
2022/11/04 00:50:08;;;;;;;2.60;1.40;;;11.40;89.70;;;;;;5034042;28;20191;-67
2022/11/04 00:52:35;;;;;;;2.20;1.02;;;11.40;90.20;;;;;;5034057;28;20226;-67
2022/11/04 00:55:02;;;;;;;2.67;1.30;;;11.40;90.20;;;;;;5033907;28;20250;-67
2022/11/04 00:57:30;;;;;;;1.98;1.10;;;11.40;90.00;;;;;;5033806;28;20284;-68
2022/11/04 00:59:57;;;;;;;2.70;1.10;;;11.30;90.00;;;;;;5033912;28;20195;-66
2022/11/04 01:02:25;;;;;;;1.92;1.00;;;11.20;90.20;;;;;;5033532;28;20222;-68
2022/11/04 01:04:52;;;;;;;2.95;1.13;;;11.20;90.20;;;;;;5033689;28;20226;-67
2022/11/04 01:07:19;;;;;;;2.30;1.40;;;11.30;90.20;;;;;;5033429;28;20187;-67
2022/11/04 01:09:46;;;;;;;2.05;1.13;;;11.30;90.40;;;;;;5033478;28;20227;-67
2022/11/04 01:12:14;;;;;;;2.45;1.02;;;11.30;90.10;;;;;;5033897;28;20195;-67
2022/11/04 01:14:42;;;;;;;1.80;0.98;;;11.30;90.10;;;;;;5033158;28;20246;-67
2022/11/04 01:17:09;;;;;;;2.13;0.95;;;11.30;90.00;;;;;;5033207;28;20245;-67
2022/11/04 01:19:36;;;;;;;3.05;1.05;;;11.30;90.00;;;;;;5033141;28;20187;-67
2022/11/04 01:22:03;;;;;;;2.13;0.80;;;11.30;90.10;;;;;;5033151;28;20194;-67
2022/11/04 01:24:30;;;;;;;1.75;0.88;;;11.30;89.50;;;;;;5033256;28;20231;-67
2022/11/04 01:26:58;;;;;;;2.05;1.10;;;11.30;89.10;;;;;;5033456;28;20280;-67
2022/11/04 01:29:25;;;;;;;2.08;1.00;;;11.30;88.20;;;;;;5033084;28;20226;-67
2022/11/04 01:31:53;;;;;;;3.50;1.38;;;11.30;88.10;;;;;;5032715;28;20191;-73
2022/11/04 01:34:20;;;;;;;3.53;1.00;;;11.30;88.20;;;;;;5033308;28;20295;-68
2022/11/04 01:36:47;;;;;;;2.20;0.93;;;11.30;88.80;;;;;;5032562;28;20269;-67
2022/11/04 01:39:14;;;;;;;3.22;1.00;;;11.30;88.10;;;;;;5032920;28;20518;-66
2022/11/04 01:41:44;;;;;;;2.15;0.93;;;11.20;87.40;;;;;;5032923;28;20192;-67
2022/11/04 01:44:49;;;;;;;2.25;1.00;;;11.20;87.00;;;;;;5032916;28;20225;-66
2022/11/04 01:47:20;;;;;;;5.35;0.90;;;11.30;87.50;;;;;;5033125;28;20522;-67
2022/11/04 01:49:51;;;;;;;2.00;1.10;;;11.30;87.30;;;;;;5032423;28;20219;-67
2022/11/04 01:52:25;;;;;;;1.90;1.00;;;11.30;87.10;;;;;;5033234;28;20253;-66
2022/11/04 01:54:55;;;;;;;3.38;0.95;;;11.30;86.60;;;;;;5032948;28;20191;-66
2022/11/04 01:57:28;;;;;;;2.45;1.38;;;11.30;86.40;;;;;;5032749;28;20191;-67
2022/11/04 01:59:58;;;;;;;2.17;0.90;;;11.30;86.10;;;;;;5032712;28;20619;-66
2022/11/04 02:02:26;;;;;;;1.77;0.82;;;11.20;85.20;;;;;;5032788;28;20195;-67
2022/11/04 02:04:53;;;;;;;2.20;0.90;;;11.10;84.50;;;;;;5032825;28;20670;-66
2022/11/04 02:07:21;;;;;;;2.53;1.10;;;10.90;85.40;;;;;;5032903;28;20706;-67
2022/11/04 02:09:49;;;;;;;1.90;0.90;;;10.90;85.50;;;;;;5032892;28;20190;-67
2022/11/04 02:15:00;;;;;;;2.08;0.88;;;10.80;85.50;;;;;;5033011;28;20217;-66
2022/11/04 02:17:44;;;;;;;1.75;0.93;;;10.90;85.10;;;;;;5032731;28;20214;-66
2022/11/04 02:20:29;;;;;;;3.47;1.00;;;10.90;85.60;;;;;;5032838;28;20237;-66
2022/11/04 02:23:25;;;;;;;1.80;1.00;;;10.80;85.80;;;;;;5031573;28;20195;-66
2022/11/04 02:26:33;;;;;;;1.80;0.98;;;10.90;86.20;;;;;;5032606;28;20247;-66
2022/11/04 02:29:16;;;;;;;2.67;1.00;;;10.90;85.40;;;;;;4971205;28;20197;-66
2022/11/04 02:31:51;;;;;;;1.90;0.90;;;10.90;85.20;;;;;;4971328;28;20232;-67
2022/11/04 02:34:25;;;;;;;2.08;0.82;;;10.80;85.60;;;;;;5008185;28;20273;-66
2022/11/04 02:36:59;;;;;;;2.45;0.73;;;10.80;85.50;;;;;;5032145;28;20186;-66
2022/11/04 02:39:37;;;;;;;1.63;0.82;;;10.80;85.20;;;;;;5032282;28;20195;-67
2022/11/04 02:42:11;;;;;;;1.70;0.80;;;10.80;85.80;;;;;;5032665;28;20203;-66
2022/11/04 02:44:46;;;;;;;1.95;0.80;;;10.80;85.70;;;;;;5034639;28;20581;-66
2022/11/04 02:47:16;;;;;;;1.80;0.75;;;10.80;85.90;;;;;;5036366;28;20734;-66
2022/11/04 02:49:51;;;;;;;1.60;0.70;;;10.80;85.60;;;;;;5036248;28;20203;-66
2022/11/04 02:52:25;;;;;;;2.00;1.10;;;10.90;86.00;;;;;;5035803;28;20225;-66
2022/11/04 02:54:58;;;;;;;2.13;0.90;;;10.90;85.90;;;;;;5036016;28;20659;-67
2022/11/04 02:57:29;;;;;;;2.00;0.90;;;10.90;85.50;;;;;;5036267;28;20218;-67
2022/11/04 03:00:02;;;;;;;1.80;0.80;;;10.80;85.00;;;;;;5036086;28;20278;-66
2022/11/04 03:02:34;;;;;;;2.50;0.60;;;10.80;85.10;;;;;;5036140;28;20191;-66
2022/11/04 03:05:05;;;;;;;2.00;0.80;;;10.70;85.20;;;;;;5035859;28;20195;-66
2022/11/04 03:07:36;;;;;;;1.60;0.65;;;10.60;85.80;;;;;;5035939;28;20230;-66
2022/11/04 03:10:08;;;;;;;1.60;0.60;;;10.60;86.10;;;;;;5035794;28;20527;-66
2022/11/04 03:12:40;;;;;;;1.70;0.70;;;10.70;87.00;;;;;;5035928;28;20203;-66
2022/11/04 03:15:16;;;;;;;1.80;0.90;;;10.70;84.70;;;;;;5035849;28;20218;-66
2022/11/04 03:17:50;;;;;;;1.92;1.00;;;10.70;84.10;;;;;;5035793;28;20254;-66
2022/11/04 03:20:21;;;;;;;2.25;0.80;;;10.60;83.80;;;;;;5035830;28;20281;-67
2022/11/04 03:22:48;;;;;;;2.00;0.90;;;10.70;83.90;;;;;;5035757;28;20584;-68
2022/11/04 03:25:16;;;;;;;2.58;0.80;;;10.70;83.50;;;;;;5035502;28;20302;-67
2022/11/04 03:27:47;;;;;;;3.30;2.42;;;10.80;83.40;;;;;;5035597;28;20235;-66
2022/11/04 03:30:18;;;;;;;2.00;0.90;;;10.80;80.60;;;;;;5035233;28;20281;-66
2022/11/04 03:32:52;;;;;;;2.00;0.80;;;10.80;80.30;;;;;;5035457;28;20191;-68
2022/11/04 03:35:20;;;;;;;2.00;1.20;;;10.90;79.80;;;;;;5035250;28;20229;-67
2022/11/04 03:37:48;;;;;;;1.95;0.73;;;10.90;80.40;;;;;;5035493;28;20245;-66
2022/11/04 03:40:17;;;;;;;1.60;0.70;;;11.00;81.20;;;;;;5034801;28;20199;-68
2022/11/04 03:42:47;;;;;;;2.70;0.90;;;11.00;81.80;;;;;;5035288;28;20191;-66
2022/11/04 03:45:16;;;;;;;1.83;0.85;;;11.00;82.60;;;;;;5035299;28;20195;-66
2022/11/04 03:47:43;;;;;;;1.80;0.82;;;11.00;83.20;;;;;;5034866;28;20691;-66
2022/11/04 03:50:18;;;;;;;2.65;0.90;;;11.00;83.80;;;;;;5035029;28;20280;-66
2022/11/04 03:52:45;;;;;;;1.90;0.93;;;11.00;84.40;;;;;;5035028;28;20640;-67
2022/11/04 03:55:13;;;;;;;1.90;1.05;;;11.00;84.40;;;;;;5034768;28;21127;-66
2022/11/04 03:57:52;;;;;;;1.60;0.70;;;11.00;84.60;;;;;;5034745;28;20203;-67
2022/11/04 04:00:22;;;;;;;2.88;0.80;;;11.00;84.60;;;;;;5034919;28;20672;-66
2022/11/04 04:03:12;;;;;;;2.42;1.17;;;11.00;84.60;;;;;;5035199;28;20187;-67
2022/11/04 04:05:44;;;;;;;1.92;1.23;;;11.00;84.90;;;;;;5031066;28;20732;-66
2022/11/04 04:08:18;;;;;;;2.85;1.05;;;10.90;85.30;;;;;;5035399;28;20231;-67
2022/11/04 04:10:53;;;;;;;2.10;0.95;;;10.90;85.30;;;;;;5034412;28;20664;-68
2022/11/04 04:13:31;;;;;;;2.03;0.70;;;10.90;85.20;;;;;;5035078;28;20695;-66
2022/11/04 04:16:07;;;;;;;1.60;0.80;;;10.80;84.90;;;;;;5034805;28;20241;-66
2022/11/04 04:18:39;;;;;;;1.80;0.80;;;10.80;84.90;;;;;;5034918;28;20229;-66
2022/11/04 04:21:09;;;;;;;2.38;0.80;;;10.80;84.90;;;;;;5034499;28;20226;-66
2022/11/04 04:29:10;;;;;;;2.90;1.15;;;10.80;85.50;;;;;;5034868;28;20246;-66
2022/11/04 04:31:49;;;;;;;2.03;0.90;;;10.80;86.50;;;;;;5034157;28;20226;-66
2022/11/04 04:34:17;;;;;;;2.10;1.00;;;10.80;85.80;;;;;;5034366;28;20217;-67
2022/11/04 04:36:49;;;;;;;2.28;1.10;;;10.80;83.80;;;;;;5034518;28;20203;-66
2022/11/04 04:45:00;;;;;;;1.73;0.70;;;10.80;79.60;;;;;;5034084;28;20232;-66
2022/11/04 04:47:33;;;;;;;1.77;0.90;;;10.70;77.00;;;;;;5034242;28;20218;-66
2022/11/04 04:50:01;;;;;;;1.80;0.80;;;10.80;76.50;;;;;;5034192;28;20199;-66
2022/11/04 04:52:30;;;;;;;1.85;0.90;;;10.80;75.40;;;;;;5033925;28;20230;-67
2022/11/04 04:54:57;;;;;;;1.60;0.75;;;10.80;75.10;;;;;;5033879;28;20233;-66
2022/11/04 04:57:24;;;;;;;1.60;0.77;;;10.80;75.00;;;;;;5033764;28;20245;-67
2022/11/04 04:59:51;;;;;;;1.90;0.90;;;10.80;75.10;;;;;;5034294;28;20276;-68
2022/11/04 05:02:18;;;;;;;2.10;0.90;;;10.90;74.90;;;;;;5034109;28;20245;-67
2022/11/04 05:04:47;;;;;;;2.95;0.75;;;10.90;74.20;;;;;;5033488;28;20664;-67
2022/11/04 05:07:14;;;;;;;1.92;0.80;;;10.90;73.20;;;;;;5032890;28;20218;-68
2022/11/04 05:09:41;;;;;;;1.90;0.70;;;10.90;73.90;;;;;;5033833;28;20237;-66
2022/11/04 05:12:08;;;;;;;1.60;0.70;;;10.90;73.80;;;;;;5033698;28;20198;-66
2022/11/04 05:14:35;;;;;;;1.70;0.70;;;10.90;73.90;;;;;;5033930;28;20282;-66
2022/11/04 05:17:02;;;;;;;1.67;0.77;;;10.90;73.90;;;;;;5033522;28;20222;-66
2022/11/04 05:19:29;;;;;;;1.90;0.80;;;11.00;74.90;;;;;;5033551;28;20191;-66
2022/11/04 05:21:58;;;;;;;1.98;0.88;;;11.00;74.40;;;;;;5033528;28;20592;-66
2022/11/04 05:24:25;;;;;;;2.15;1.00;;;11.00;74.40;;;;;;5033333;28;20226;-66
2022/11/04 05:26:52;;;;;;;2.65;1.35;;;11.00;74.90;;;;;;5033478;28;20265;-67
2022/11/04 05:29:19;;;;;;;2.75;1.50;;;11.00;74.10;;;;;;5033362;28;20551;-67
2022/11/04 05:31:46;;;;;;;2.45;1.30;;;11.00;74.30;;;;;;5033413;28;20190;-67
2022/11/04 05:34:14;;;;;;;2.00;0.98;;;11.00;74.60;;;;;;5033307;28;20297;-66
2022/11/04 05:36:41;;;;;;;2.40;1.10;;;11.00;74.70;;;;;;5033209;28;20253;-66
2022/11/04 05:39:12;;;;;;;2.13;1.05;;;11.00;74.90;;;;;;5033152;28;20233;-66
2022/11/04 05:41:39;;;;;;;2.28;1.02;;;10.90;74.90;;;;;;5033278;28;20257;-66
2022/11/04 05:44:08;;;;;;;1.80;0.85;;;11.00;75.30;;;;;;5032992;28;20654;-66
2022/11/04 05:46:35;;;;;;;2.05;0.80;;;11.00;75.60;;;;;;5033257;28;20222;-66
2022/11/04 05:49:02;;;;;;;2.28;0.95;;;11.00;75.40;;;;;;5032946;28;20195;-67
2022/11/04 05:51:29;;;;;;;1.80;0.75;;;11.00;75.70;;;;;;5033218;28;20218;-66
2022/11/04 05:53:56;;;;;;;1.85;0.75;;;11.00;75.40;;;;;;5033041;28;20240;-66
2022/11/04 05:56:25;;;;;;;2.70;0.70;;;11.00;75.60;;;;;;5032815;28;20226;-66
2022/11/04 05:58:52;;;;;;;2.78;1.17;;;11.00;75.60;;;;;;5032909;28;20288;-67
2022/11/04 06:01:31;;;;;;;1.90;0.80;;;11.00;74.90;;;;;;5032950;28;20199;-67
2022/11/04 06:03:59;;;;;;;1.92;0.90;;;11.00;74.70;;;;;;5033004;28;20183;-66
2022/11/04 06:06:28;;;;;;;1.80;0.80;;;11.00;74.30;;;;;;5032993;28;20288;-66
2022/11/04 06:08:56;;;;;;;1.80;0.77;;;11.00;74.70;;;;;;5032973;28;20588;-67
2022/11/04 06:11:26;;;;;;;1.85;0.80;;;11.00;75.30;;;;;;5033134;28;20226;-66
2022/11/04 06:13:54;;;;;;;1.90;0.80;;;11.00;77.40;;;;;;5032532;28;20218;-66
2022/11/04 06:16:22;;;;;;;1.70;0.82;;;11.00;78.10;;;;;;5032573;28;20301;-67
2022/11/04 06:18:49;;;;;;;1.75;0.90;;;11.00;78.80;;;;;;5033792;28;20199;-67
2022/11/04 06:21:24;;;;;;;2.15;0.90;;;11.00;80.00;;;;;;5033857;28;20183;-69
2022/11/04 06:23:52;;;;;;;5.30;0.93;;;10.90;81.60;;;;;;5036706;28;20589;-67
2022/11/04 06:26:21;;;;;;;1.92;0.70;;;10.90;82.80;;;;;;5036095;28;20225;-67
2022/11/04 06:28:51;;;;;;;1.60;0.68;;;10.80;83.30;;;;;;5036249;28;20598;-66
2022/11/04 06:31:19;;;;;;;1.85;1.05;;;10.80;83.60;;;;;;5035599;28;20198;-68
2022/11/04 06:33:46;;;;;;;2.65;1.63;;;10.80;82.60;;;;;;5036255;28;20183;-66
2022/11/04 06:36:15;;;;;;;5.38;2.25;;;10.60;83.00;;;;;;5042602;28;20671;-67
2022/11/04 06:38:42;;;;;;;4.22;2.10;;;10.60;83.50;;;;;;5016300;28;20202;-66
2022/11/04 06:41:12;;;;;;;7.53;2.60;;;10.50;85.00;;;;;;5020585;28;20252;-67
2022/11/04 06:43:39;;;;;;;2.60;1.40;;;10.40;85.10;;;;;;5035072;28;20191;-67
2022/11/04 06:46:26;;;;;;;2.20;1.13;;;10.30;85.20;;;;;;5035253;28;20600;-68
2022/11/04 06:48:53;;;;;;;2.63;1.48;;;10.20;85.40;;;;;;5035209;28;20187;-68
2022/11/04 06:51:20;;;;;;;2.88;1.52;;;10.30;85.90;;;;;;5035314;28;20191;-67
2022/11/04 06:53:47;;;;;;;2.22;1.30;;;10.30;87.70;;;;;;5035801;28;20195;-67
2022/11/04 06:56:15;;;;;;;1.90;0.82;;;10.30;87.90;;;;;;5035651;28;20206;-66
2022/11/04 06:58:42;;;;;;;2.55;1.40;;;10.30;88.10;;;;;;5035437;28;20195;-67
2022/11/04 07:01:10;;;;;;;2.15;1.02;;;10.30;88.30;;;;;;5035356;28;20195;-67
2022/11/04 07:03:37;;;;;;;1.95;0.80;;;10.30;87.90;;;;;;5033811;28;20188;-68
2022/11/04 07:06:09;;;;;;;2.30;0.95;;;10.20;86.70;;;;;;5035393;28;20222;-67
2022/11/04 07:08:36;;;;;;;3.15;0.90;;;10.20;87.40;;;;;;5032210;28;20199;-67
2022/11/04 07:11:04;;;;;;;2.15;0.82;;;10.10;86.30;;;;;;5025519;28;20183;-68
2022/11/04 07:13:31;;;;;;;1.90;1.00;;;10.20;86.20;;;;;;5026222;28;20187;-67
2022/11/04 07:15:58;;;;;;;2.05;1.10;;;10.20;85.90;;;;;;5026745;28;20590;-67
2022/11/04 07:18:27;;;;;;;1.90;0.85;;;10.10;86.10;;;;;;5027959;28;20183;-66
2022/11/04 07:20:54;;;;;;;1.92;1.00;;;10.00;86.90;;;;;;5027023;28;20194;-68
2022/11/04 07:23:22;;;;;;;3.35;1.50;;;9.90;88.50;;;;;;5030370;28;20187;-71
2022/11/04 07:25:49;;;;;;;2.22;1.00;;;9.80;89.20;;;;;;5030438;28;20183;-66
2022/11/04 07:28:16;;;;;;;2.03;1.05;;;9.80;89.40;;;;;;5034259;28;20222;-66
2022/11/04 07:30:44;;;;;;;1.60;0.70;;;9.70;89.70;;;;;;5034538;28;20202;-67
2022/11/04 07:33:11;;;;;;;1.98;1.00;;;9.80;89.60;;;;;;5034842;28;20214;-66
2022/11/04 07:35:39;;;;;;;2.30;1.20;;;9.90;89.60;;;;;;5035697;28;20222;-66
2022/11/04 07:38:06;;;;;;;2.25;1.35;;;9.70;89.30;;;;;;5034866;28;20199;-66
2022/11/04 07:40:34;;;;;;;3.15;1.40;;;9.70;90.10;;;;;;5034416;28;20195;-66
2022/11/04 07:43:01;;;;;;;2.25;1.40;;;9.60;90.10;;;;;;5035238;28;20245;-66
2022/11/04 07:45:28;;;;;;;2.90;1.88;;;9.60;90.20;;;;;;5035302;28;20198;-66
2022/11/04 07:47:55;;;;;;;2.72;1.30;;;9.60;90.10;;;;;;5034891;28;20272;-66
2022/11/04 07:50:22;;;;;;;1.80;0.77;;;9.60;90.30;;;;;;5035387;28;20191;-67
2022/11/04 07:52:50;;;;;;;1.77;0.73;;;9.50;90.60;;;;;;5035491;28;20187;-66
2022/11/04 07:55:18;;;;;;;3.70;1.08;;;9.50;90.60;;;;;;5035055;28;20191;-67
2022/11/04 07:57:45;;;;;;;2.20;0.85;;;9.50;90.80;;;;;;5035295;28;20720;-66
2022/11/04 08:00:15;;;;;;;2.08;1.00;;;9.50;90.70;;;;;;5035231;28;20555;-66
2022/11/04 08:02:43;;;;;;;2.03;0.90;;;9.60;90.70;;;;;;5034967;28;20202;-66
2022/11/04 08:05:10;;;;;;;1.60;0.80;;;9.50;90.70;;;;;;5034874;28;20191;-66
2022/11/04 08:07:37;;;;;;;3.35;1.98;;;9.50;91.40;;;;;;5034971;28;20219;-66
2022/11/04 08:10:07;;;;;;;2.60;1.90;;;9.50;92.20;;;;;;5031537;28;20227;-67
2022/11/04 08:12:34;;;;;;;3.20;1.92;;;9.60;92.80;;;;;;5033903;28;20195;-66
2022/11/04 08:15:01;;;;;;;3.58;2.13;;;9.60;92.40;;;;;;5031191;28;20218;-66
2022/11/04 08:17:28;;;;;;;3.33;1.70;;;9.60;91.00;;;;;;5032937;28;20267;-66
2022/11/04 08:19:55;;;;;;;2.42;1.40;;;9.60;91.30;;;;;;5033622;28;20314;-66
2022/11/04 08:22:21;;;;;;;4.63;1.13;;;9.70;91.20;;;;;;5033615;28;20229;-67
2022/11/04 08:24:48;;;;;;;3.00;1.00;;;9.50;91.70;;;;;;5033472;28;20284;-66
2022/11/04 08:27:17;;;;;;;2.00;1.10;;;9.50;92.10;;;;;;5031184;28;20300;-67
2022/11/04 08:29:44;;;;;;;1.95;0.90;;;9.50;92.60;;;;;;5033425;28;20612;-67
2022/11/04 08:32:11;;;;;;;2.63;1.30;;;9.50;92.80;;;;;;5033470;28;20195;-66
2022/11/04 08:34:38;;;;;;;2.22;0.98;;;9.40;92.70;;;;;;5033045;28;20245;-66
2022/11/04 08:37:05;;;;;;;1.80;0.90;;;9.40;92.70;;;;;;5032199;28;20206;-66
2022/11/04 08:39:32;;;;;;;2.50;1.20;;;9.50;92.50;;;;;;5032999;28;20230;-66
2022/11/04 08:41:59;;;;;;;2.00;0.90;;;9.50;92.70;;;;;;5032372;28;20207;-66
2022/11/04 08:44:28;;;;;;;3.10;1.25;;;9.50;92.80;;;;;;5032827;28;20202;-67
2022/11/04 08:46:55;;;;;;;2.88;1.27;;;9.60;93.00;;;;;;5032975;28;20503;-66
2022/11/04 08:49:22;;;;;;;3.30;1.20;;;9.60;93.20;;;;;;5033172;28;20199;-66
2022/11/04 08:51:55;;;;;;;2.33;1.05;;;9.70;93.40;;;;;;5032828;28;20199;-66
2022/11/04 08:54:22;;;;;;;3.00;1.38;;;9.70;93.50;;;;;;5032023;28;20202;-66
2022/11/04 08:56:49;;;;;;;2.88;1.27;;;9.70;93.70;;;;;;5032907;28;20226;-66
2022/11/04 08:59:16;;;;;;;2.80;1.63;;;9.80;93.90;;;;;;5033111;28;20257;-67
2022/11/04 09:01:44;;;;;;;3.10;2.25;;;9.80;94.10;;;;;;5032714;28;20191;-66
2022/11/04 09:04:12;;;;;;;2.40;1.70;;;10.00;93.80;;;;;;5033011;28;20257;-66
2022/11/04 09:06:42;;;;;;;3.85;1.52;;;10.00;94.10;;;;;;5032593;28;20203;-66
2022/11/04 09:09:13;;;;;;;2.10;1.05;;;10.10;94.10;;;;;;5032624;28;20235;-66
2022/11/04 09:11:42;;;;;;;3.45;1.45;;;10.10;93.70;;;;;;5032687;28;20637;-67
2022/11/04 09:14:09;;;;;;;2.95;1.52;;;10.10;94.10;;;;;;5032302;28;20245;-66
2022/11/04 09:16:37;;;;;;;2.10;1.10;;;9.90;94.80;;;;;;5031765;28;20808;-66
2022/11/04 09:19:06;;;;;;;2.00;1.05;;;9.90;95.60;;;;;;5032385;28;20199;-66
2022/11/04 09:21:33;;;;;;;2.17;1.17;;;9.80;95.60;;;;;;5032415;28;20230;-66
2022/11/04 09:24:00;;;;;;;4.75;1.30;;;9.80;95.60;;;;;;5032229;28;20253;-66
2022/11/04 09:26:27;;;;;;;3.88;1.55;;;9.90;95.70;;;;;;5032183;28;20230;-66
2022/11/04 09:28:55;;;;;;;2.65;1.30;;;10.00;94.60;;;;;;5031688;28;20312;-67
2022/11/04 09:31:22;;;;;;;2.00;1.17;;;10.00;94.40;;;;;;5032509;28;20241;-66
2022/11/04 09:33:50;;;;;;;3.22;1.42;;;10.00;94.60;;;;;;5031901;28;20645;-66
2022/11/04 09:36:18;;;;;;;2.97;2.10;;;10.00;94.60;;;;;;5032325;28;20194;-67
2022/11/04 09:38:45;;;;;;;2.50;1.70;;;10.00;94.80;;;;;;5031876;28;20265;-67
2022/11/04 09:41:41;;;;;;;14.57;9.02;;;9.90;95.60;;;;;;5032195;28;20267;-66
2022/11/04 09:44:17;;;;;;;4.72;2.72;;;9.80;96.10;;;;;;5032171;28;20590;-66
2022/11/04 09:46:47;;;;;;;1.70;0.82;;;9.80;96.00;;;;;;5032245;28;20195;-66
2022/11/04 09:49:15;;;;;;;2.10;1.20;;;9.60;95.60;;;;;;5032460;28;20230;-66
2022/11/04 09:51:46;;;;;;;2.35;1.40;;;9.60;95.60;;;;;;5031752;28;20210;-66
2022/11/04 09:54:20;;;;;;;2.40;1.50;;;9.60;95.00;;;;;;5031928;28;20197;-66
2022/11/04 09:56:50;;;;;;;3.00;1.73;;;9.50;94.40;;;;;;5031402;28;20248;-67
2022/11/04 09:59:23;;;;;;;3.08;1.95;;;9.40;94.60;;;;;;5031747;28;20282;-66
2022/11/04 10:02:01;;;;;;;3.10;1.75;;;9.30;94.90;;;;;;5031288;28;20297;-66
2022/11/04 10:04:40;;;;;;;3.08;1.70;;;9.30;94.50;;;;;;5025594;28;20542;-65
2022/11/04 10:07:21;;;;;;;3.28;1.75;;;9.20;94.40;;;;;;5031650;28;20253;-65
2022/11/04 10:10:01;;;;;;;1.90;0.95;;;9.20;94.50;;;;;;5031246;28;20268;-67
2022/11/04 10:12:43;;;;;;;2.33;1.30;;;9.10;94.20;;;;;;5029061;28;20195;-66
2022/11/04 10:15:29;;;;;;;2.35;1.20;;;9.10;94.30;;;;;;5031274;28;20245;-65
2022/11/04 10:18:11;;;;;;;2.90;1.50;;;9.10;94.70;;;;;;5032020;28;20253;-66
2022/11/04 10:20:49;;;;;;;3.40;2.13;;;9.10;94.60;;;;;;5031867;28;20195;-65
2022/11/04 10:23:22;;;;;;;4.18;1.83;;;9.10;95.10;;;;;;5032019;28;20194;-66
2022/11/04 10:25:54;;;;;;;2.00;1.10;;;9.10;95.40;;;;;;5031392;28;20210;-66
2022/11/04 10:28:34;;;;;;;2.45;1.30;;;9.10;95.70;;;;;;5031721;28;20262;-65
2022/11/04 10:31:03;;;;;;;2.78;1.40;;;9.10;96.90;;;;;;5031954;28;20543;-65
2022/11/04 10:33:34;;;;;;;1.92;0.82;;;9.20;99.90;;;;;;5031005;28;20191;-66
2022/11/04 10:36:03;;;;;;;2.47;1.15;;;9.30;99.90;;;;;;5029325;28;20231;-65
2022/11/04 10:38:38;;;;;;;3.92;1.55;;;9.30;99.00;;;;;;5031716;28;20221;-65
2022/11/04 10:41:28;;;;;;;2.50;1.30;;;9.40;98.70;;;;;;5031622;28;20253;-65
2022/11/04 10:44:01;;;;;;;2.45;1.20;;;9.30;98.90;;;;;;5030788;28;20194;-66
2022/11/04 10:46:43;;;;;;;2.47;1.15;;;9.30;99.30;;;;;;5031200;28;20248;-65
2022/11/04 10:49:34;;;;;;;2.20;1.10;;;9.40;99.40;;;;;;5030442;28;20219;-65
2022/11/04 10:52:02;;;;;;;3.95;2.85;;;9.40;98.90;;;;;;5029558;28;20203;-65
2022/11/04 10:54:35;;;;;;;2.10;1.20;;;9.40;98.10;;;;;;5031012;28;20234;-66
2022/11/04 10:57:02;;;;;;;4.97;2.20;;;9.50;98.20;;;;;;5029230;28;20195;-65
2022/11/04 10:59:34;;;;;;;3.88;1.40;;;9.40;97.70;;;;;;5031331;28;20229;-65
2022/11/04 11:02:02;;;;;;;4.60;2.55;;;9.30;97.60;;;;;;5031342;28;20230;-66
2022/11/04 11:04:32;;;;;;;3.67;1.17;;;9.40;98.10;;;;;;5031201;28;20273;-66
2022/11/04 11:07:00;;;;;;;2.95;1.35;;;9.30;97.40;;;;;;5035018;28;20283;-66
2022/11/04 11:09:31;;;;;;;2.33;1.10;;;9.30;97.20;;;;;;5034681;28;20219;-65
2022/11/04 11:12:00;;;;;;;2.05;0.80;;;9.10;96.90;;;;;;5034932;28;20256;-64
2022/11/04 11:14:36;;;;;;;2.10;1.00;;;9.20;96.00;;;;;;5034308;28;20211;-66
2022/11/04 11:17:25;;;;;;;1.70;0.80;;;9.20;96.20;;;;;;5034363;28;20262;-65
2022/11/04 11:19:58;;;;;;;1.90;0.85;;;9.20;95.90;;;;;;5027666;28;20195;-65
2022/11/04 11:22:31;;;;;;;3.08;1.20;;;9.20;95.60;;;;;;5034883;28;20278;-65
2022/11/04 11:27:56;;;;;;;2.10;1.17;;;9.20;96.20;;;;;;5130519;27;20609;-66
2022/11/04 11:30:27;;;;;;;2.85;1.45;;;9.00;96.60;;;;;;5124767;28;20729;-65
2022/11/04 11:32:57;;;;;;;2.90;1.40;;;8.90;96.40;;;;;;5121414;28;20183;-66
2022/11/04 11:35:29;;;;;;;3.90;1.40;;;8.90;97.10;;;;;;5124645;28;20660;-67
2022/11/04 11:37:57;;;;;;;2.60;1.25;;;8.90;96.40;;;;;;5122094;28;20276;-67
2022/11/04 11:40:30;;;;;;;2.28;1.00;;;8.90;96.90;;;;;;5125392;28;20621;-67
2022/11/04 11:43:00;;;;;;;2.58;0.90;;;8.90;96.10;;;;;;5125674;28;20210;-67
2022/11/04 11:45:34;;;;;;;2.10;1.20;;;9.00;96.10;;;;;;5121135;27;20231;-67
2022/11/04 11:48:01;;;;;;;2.55;0.95;;;9.10;96.30;;;;;;5124681;27;20692;-66
2022/11/04 11:50:33;;;;;;;2.00;0.93;;;9.10;96.30;;;;;;5126088;27;20571;-66
2022/11/04 11:53:16;;;;;;;2.75;1.17;;;9.20;96.10;;;;;;5119304;28;20184;-66
2022/11/04 11:55:49;;;;;;;4.57;1.05;;;9.20;95.30;;;;;;5126108;28;20568;-67
2022/11/04 11:58:30;;;;;;;2.08;1.00;;;9.30;95.30;;;;;;5123785;28;20194;-68
2022/11/04 12:01:02;;;;;;;2.75;1.10;;;9.40;95.10;;;;;;5122255;27;20274;-67
2022/11/04 12:03:34;;;;;;;2.13;1.20;;;9.40;95.00;;;;;;5127142;27;20183;-66
2022/11/04 12:06:16;;;;;;;2.63;1.10;;;9.40;94.90;;;;;;5122544;28;20400;-67
2022/11/04 12:08:56;;;;;;;5.18;2.00;;;9.50;95.10;;;;;;5127249;28;20618;-67
2022/11/04 12:11:30;;;;;;;2.55;1.30;;;9.50;95.20;;;;;;5120993;28;20195;-67
2022/11/04 12:14:04;;;;;;;2.70;1.30;;;9.50;94.90;;;;;;5125266;28;20230;-66
2022/11/04 12:16:39;;;;;;;3.30;1.63;;;9.40;95.30;;;;;;5122678;28;20332;-67
2022/11/04 12:19:34;;;;;;;2.50;1.25;;;9.40;95.60;;;;;;5108707;28;20236;-66
2022/11/04 12:22:09;;;;;;;2.58;1.30;;;9.40;95.70;;;;;;5108570;28;20189;-68
2022/11/04 12:24:46;;;;;;;4.00;1.60;;;9.50;95.80;;;;;;5112159;28;20196;-66
2022/11/04 12:27:20;;;;;;;2.90;1.70;;;9.60;96.10;;;;;;5111945;28;20219;-66
2022/11/04 12:30:03;;;;;;;8.75;8.05;;;9.70;95.80;;;;;;5113194;28;20192;-67
2022/11/04 12:32:47;;;;;;;9.05;8.35;;;9.80;95.20;;;;;;5110530;28;20188;-68
2022/11/04 12:35:32;;;;;;;5.47;2.47;;;9.80;94.30;;;;;;5112800;28;20200;-66
2022/11/04 12:38:20;;;;;;;6.60;5.65;;;9.80;94.80;;;;;;5103864;28;20699;-66
2022/11/04 12:40:58;;;;;;;5.93;5.22;;;9.70;94.90;;;;;;5100120;28;20180;-66
2022/11/04 12:43:33;;;;;;;6.45;3.90;;;9.70;95.40;;;;;;5099608;28;20296;-72
2022/11/04 12:46:10;;;;;;;2.80;1.17;;;9.70;95.20;;;;;;5097273;28;20188;-66
2022/11/04 12:48:51;;;;;;;2.63;1.30;;;9.80;95.30;;;;;;5099627;28;20650;-66
2022/11/04 12:51:30;;;;;;;3.47;1.63;;;9.70;94.50;;;;;;5099585;28;20188;-67
2022/11/04 12:54:20;;;;;;;3.63;2.33;;;9.60;95.00;;;;;;5100237;28;20631;-66
2022/11/04 12:56:52;;;;;;;3.55;1.95;;;9.60;95.40;;;;;;5101435;28;20216;-66
2022/11/04 12:59:51;;;;;;;3.10;2.13;;;9.60;95.70;;;;;;5096909;28;20191;-67
2022/11/04 13:02:24;;;;;;;2.00;1.10;;;9.60;95.70;;;;;;5102000;28;20192;-67
2022/11/04 13:04:59;;;;;;;2.60;1.65;;;9.70;95.70;;;;;;5109022;28;20188;-70
2022/11/04 13:07:36;;;;;;;4.15;1.73;;;9.70;95.40;;;;;;5115838;28;20292;-67
2022/11/04 13:10:07;;;;;;;3.38;2.10;;;9.70;95.30;;;;;;5115950;28;20188;-66
2022/11/04 13:12:39;;;;;;;2.58;1.40;;;9.70;95.60;;;;;;5115891;28;20227;-67
2022/11/04 13:15:16;;;;;;;2.17;1.02;;;9.70;94.70;;;;;;5115950;28;20242;-66
2022/11/04 13:17:46;;;;;;;3.25;1.40;;;9.70;95.50;;;;;;5116053;28;20283;-66
2022/11/04 13:20:22;;;;;;;3.05;1.80;;;9.80;95.40;;;;;;5116117;28;20192;-66
2022/11/04 13:22:53;;;;;;;3.63;2.25;;;9.90;94.80;;;;;;5115943;28;20227;-66
2022/11/04 13:25:28;;;;;;;5.20;3.72;;;9.90;94.90;;;;;;5115729;28;20219;-67
2022/11/04 13:27:56;;;;;;;3.35;2.47;;;10.00;94.60;;;;;;5074944;28;20212;-66
2022/11/04 13:30:32;;;;;;;3.17;1.83;;;10.10;94.50;;;;;;5074848;28;20282;-67
2022/11/04 13:33:08;;;;;;;3.58;1.70;;;10.20;94.40;;;;;;5074935;28;20190;-66
2022/11/04 13:35:43;;;;;;;2.50;1.17;;;10.20;94.20;;;;;;5074992;28;20628;-66
2022/11/04 13:38:14;;;;;;;3.45;1.52;;;10.20;94.40;;;;;;5074940;28;20250;-67
2022/11/04 13:40:52;;;;;;;3.20;1.52;;;10.30;94.50;;;;;;5074781;28;20302;-66
2022/11/04 13:43:39;;;;;;;2.75;1.40;;;10.20;93.40;;;;;;5074833;28;20318;-66
2022/11/04 13:46:18;;;;;;;3.40;1.80;;;10.20;93.30;;;;;;5074857;28;20296;-66